Time;durP1;ratioP1;P1;durP2;ratioP2;P2;SDS_P1;SDS_P2;PMS_P1;PMS_P2;Temp;Humidity;BMP_temperature;BMP_pressure;BME280_temperature;BME280_humidity;BME280_pressure;Samples;Min_cycle;Max_cycle;Signal;HPM_P1;HPM_P2
2022/10/08 00:01:15;;;;;;;21.43;19.07;;;13.40;99.90;;;;;;5011261;28;20184;-64
2022/10/08 00:03:44;;;;;;;19.13;16.57;;;13.40;99.90;;;;;;5012151;28;20763;-63
2022/10/08 00:06:13;;;;;;;20.80;17.47;;;13.30;99.90;;;;;;5012351;28;20408;-64
2022/10/08 00:08:41;;;;;;;23.93;17.40;;;13.30;99.90;;;;;;5012378;28;20408;-63
2022/10/08 00:11:10;;;;;;;24.60;18.87;;;13.30;99.90;;;;;;5011045;28;20838;-63
2022/10/08 00:13:42;;;;;;;33.53;18.17;;;13.30;99.90;;;;;;5011882;28;20785;-63
2022/10/08 00:16:15;;;;;;;24.03;16.73;;;13.30;99.90;;;;;;5011757;28;20407;-63
2022/10/08 00:18:44;;;;;;;21.90;16.90;;;13.30;99.90;;;;;;5011828;28;20430;-63
2022/10/08 00:21:16;;;;;;;23.70;17.83;;;13.20;99.90;;;;;;5011061;28;20923;-63
2022/10/08 00:23:43;;;;;;;20.77;18.57;;;13.10;1.00;;;;;;5011854;28;20868;-63
2022/10/08 00:26:09;;;;;;;22.00;17.20;;;13.10;1.00;;;;;;5011537;28;20434;-60
2022/10/08 00:28:37;;;;;;;22.57;17.67;;;13.10;99.90;;;;;;5011531;28;20527;-63
2022/10/08 00:31:15;;;;;;;23.03;19.20;;;13.20;99.90;;;;;;5010335;28;20461;-63
2022/10/08 00:33:41;;;;;;;20.07;18.07;;;13.20;99.90;;;;;;5011250;28;20865;-63
2022/10/08 00:36:10;;;;;;;27.03;19.43;;;13.20;99.90;;;;;;5011445;28;20400;-63
2022/10/08 00:38:37;;;;;;;21.23;18.80;;;13.10;99.90;;;;;;5010685;28;20411;-63
2022/10/08 00:41:04;;;;;;;22.17;17.50;;;13.00;99.90;;;;;;5010298;28;20486;-63
2022/10/08 00:43:44;;;;;;;19.80;17.40;;;13.00;1.00;;;;;;5010951;28;20430;-63
2022/10/08 00:46:21;;;;;;;18.97;16.97;;;13.00;1.00;;;;;;5010765;28;20930;-63
2022/10/08 00:48:51;;;;;;;23.93;18.23;;;12.90;1.00;;;;;;5011175;28;20750;-63
2022/10/08 00:51:17;;;;;;;32.27;18.70;;;12.80;1.00;;;;;;5010644;28;20605;-62
2022/10/08 00:53:43;;;;;;;21.13;18.30;;;12.80;1.00;;;;;;5010900;28;20508;-63
2022/10/08 00:56:09;;;;;;;27.43;18.43;;;12.80;1.00;;;;;;5010586;28;20494;-63
2022/10/08 00:58:37;;;;;;;20.43;17.83;;;12.90;1.00;;;;;;5011237;28;20506;-63
2022/10/08 01:01:03;;;;;;;24.50;19.90;;;12.90;1.00;;;;;;5018486;28;20226;-63
2022/10/08 01:03:29;;;;;;;21.80;18.33;;;13.00;99.90;;;;;;5030833;28;20418;-63
2022/10/08 01:06:19;;;;;;;29.67;18.70;;;13.00;1.00;;;;;;5030462;28;20398;-63
2022/10/08 01:09:03;;;;;;;24.23;19.40;;;13.00;1.00;;;;;;5030802;28;20172;-63
2022/10/08 01:11:51;;;;;;;22.23;17.77;;;13.00;1.00;;;;;;5030184;28;20422;-62
2022/10/08 01:14:28;;;;;;;19.23;17.23;;;12.90;1.00;;;;;;5029948;28;20552;-63
2022/10/08 01:16:54;;;;;;;22.17;19.77;;;12.90;1.00;;;;;;5030712;28;20497;-63
2022/10/08 01:19:37;;;;;;;25.03;17.60;;;12.90;1.00;;;;;;5030043;28;20450;-63
2022/10/08 01:22:21;;;;;;;23.17;19.07;;;12.90;1.00;;;;;;5029645;28;20284;-64
2022/10/08 01:27:42;;;;;;;28.33;17.77;;;12.90;1.00;;;;;;5031020;28;20434;-63
2022/10/08 01:30:13;;;;;;;32.27;19.70;;;12.90;1.00;;;;;;5029696;28;20488;-64
2022/10/08 01:33:00;;;;;;;18.47;15.53;;;12.80;1.00;;;;;;5029928;28;20430;-63
2022/10/08 01:35:30;;;;;;;22.20;17.30;;;12.80;1.00;;;;;;5030308;28;20402;-64
2022/10/08 01:38:01;;;;;;;20.70;17.37;;;12.80;1.00;;;;;;5030536;28;20410;-63
2022/10/08 01:40:32;;;;;;;20.50;18.30;;;12.70;1.00;;;;;;5028188;28;20777;-63
2022/10/08 01:43:00;;;;;;;21.23;16.50;;;12.70;1.00;;;;;;5030583;28;20390;-64
2022/10/08 01:45:33;;;;;;;20.00;17.80;;;12.70;1.00;;;;;;5029641;28;20760;-63
2022/10/08 01:48:03;;;;;;;20.87;18.27;;;12.70;1.00;;;;;;5030663;28;20445;-63
2022/10/08 01:50:51;;;;;;;21.90;16.97;;;12.70;1.00;;;;;;5029323;28;20946;-64
2022/10/08 01:53:20;;;;;;;20.90;17.67;;;12.70;1.00;;;;;;5030480;28;20515;-63
2022/10/08 01:55:51;;;;;;;24.70;18.77;;;12.80;1.00;;;;;;5029518;28;20909;-63
2022/10/08 01:58:37;;;;;;;23.00;17.77;;;12.80;1.00;;;;;;5029887;28;20506;-63
2022/10/08 02:01:19;;;;;;;22.33;18.40;;;12.80;1.00;;;;;;5029398;28;20453;-63
2022/10/08 02:04:31;;;;;;;25.00;19.57;;;12.60;1.00;;;;;;5030633;28;20402;-63
2022/10/08 02:06:35;;;;;;;26.17;18.20;;;12.70;1.00;;;;;;5036091;28;20484;-63
2022/10/08 02:09:02;;;;;;;24.40;18.87;;;12.70;1.00;;;;;;5035282;28;20417;-63
2022/10/08 02:11:28;;;;;;;29.40;18.00;;;12.70;1.00;;;;;;5039918;28;20444;-64
2022/10/08 02:13:54;;;;;;;37.57;19.63;;;12.80;1.00;;;;;;5041143;28;20474;-63
2022/10/08 02:16:26;;;;;;;38.60;19.60;;;12.80;1.00;;;;;;5036564;28;20172;-63
2022/10/08 02:19:15;;;;;;;38.67;22.00;;;12.80;1.00;;;;;;5015331;28;20233;-64
2022/10/08 02:21:43;;;;;;;50.40;22.43;;;12.80;1.00;;;;;;5033057;28;20491;-64
2022/10/08 02:24:16;;;;;;;29.30;19.67;;;12.90;1.00;;;;;;5032184;28;20436;-64
2022/10/08 02:26:47;;;;;;;22.40;19.13;;;12.90;1.00;;;;;;5034116;28;20476;-64
2022/10/08 02:29:23;;;;;;;25.33;19.23;;;12.90;1.00;;;;;;5032699;28;20418;-64
2022/10/08 02:32:06;;;;;;;25.10;17.93;;;12.90;1.00;;;;;;5032913;28;20422;-64
2022/10/08 02:34:37;;;;;;;22.73;18.73;;;12.90;1.00;;;;;;5032082;28;20465;-63
2022/10/08 02:37:19;;;;;;;34.37;19.40;;;12.90;1.00;;;;;;5033871;28;20447;-63
2022/10/08 02:40:01;;;;;;;31.33;21.00;;;12.90;1.00;;;;;;5042299;28;20399;-64
2022/10/08 02:42:31;;;;;;;27.30;19.07;;;12.90;1.00;;;;;;5042822;28;20469;-63
2022/10/08 02:45:21;;;;;;;25.80;20.73;;;12.90;1.00;;;;;;5032181;28;20406;-63
2022/10/08 02:47:52;;;;;;;34.40;19.00;;;12.90;1.00;;;;;;5029584;28;20476;-63
2022/10/08 02:50:22;;;;;;;29.30;19.07;;;12.90;1.00;;;;;;5028999;28;20402;-63
2022/10/08 02:52:49;;;;;;;28.03;20.27;;;12.90;1.00;;;;;;5029014;28;20449;-63
2022/10/08 02:55:25;;;;;;;22.43;18.97;;;12.90;1.00;;;;;;5028370;28;20484;-63
2022/10/08 02:58:02;;;;;;;25.73;19.67;;;12.90;1.00;;;;;;5030761;28;20410;-64
2022/10/08 03:00:34;;;;;;;27.43;18.70;;;12.90;1.00;;;;;;5031789;28;20410;-64
2022/10/08 03:03:14;;;;;;;27.80;18.30;;;12.90;1.00;;;;;;5033100;28;20416;-63
2022/10/08 03:05:44;;;;;;;25.93;18.00;;;12.90;1.00;;;;;;5032319;28;20413;-63
2022/10/08 03:08:13;;;;;;;25.07;17.30;;;12.80;1.00;;;;;;5033186;28;20406;-63
2022/10/08 03:10:40;;;;;;;22.47;18.40;;;12.80;1.00;;;;;;5031573;28;20402;-62
2022/10/08 03:13:07;;;;;;;26.97;19.10;;;12.80;1.00;;;;;;5033073;28;20469;-63
2022/10/08 03:15:35;;;;;;;26.53;19.30;;;12.80;1.00;;;;;;5032085;28;20409;-63
2022/10/08 03:18:05;;;;;;;20.60;17.67;;;12.80;1.00;;;;;;5033058;28;20411;-63
2022/10/08 03:20:31;;;;;;;22.53;18.33;;;12.80;1.00;;;;;;5031790;28;20499;-63
2022/10/08 03:23:01;;;;;;;19.70;17.43;;;12.80;1.00;;;;;;5032518;28;20504;-63
2022/10/08 03:25:26;;;;;;;20.43;17.30;;;12.80;1.00;;;;;;5031680;28;20937;-64
2022/10/08 03:27:52;;;;;;;22.23;16.77;;;12.80;1.00;;;;;;5032446;28;20403;-63
2022/10/08 03:30:18;;;;;;;19.30;17.27;;;12.80;1.00;;;;;;5031275;28;20167;-64
2022/10/08 03:32:43;;;;;;;19.97;17.53;;;12.80;1.00;;;;;;5032075;28;20722;-61
2022/10/08 03:35:09;;;;;;;20.30;17.33;;;12.90;1.00;;;;;;5032208;28;20253;-65
2022/10/08 03:37:34;;;;;;;22.70;18.13;;;12.90;1.00;;;;;;5032257;28;20534;-63
2022/10/08 03:40:00;;;;;;;21.73;18.60;;;12.80;1.00;;;;;;5012918;28;20195;-63
2022/10/08 03:42:26;;;;;;;25.90;18.27;;;12.80;1.00;;;;;;5031924;28;20606;-64
2022/10/08 03:44:52;;;;;;;22.30;19.90;;;12.70;1.00;;;;;;5031520;28;20659;-63
2022/10/08 03:47:18;;;;;;;26.13;18.47;;;12.80;1.00;;;;;;5032207;28;20183;-64
2022/10/08 03:49:43;;;;;;;26.13;19.30;;;12.80;1.00;;;;;;5031586;28;20725;-63
2022/10/08 03:52:09;;;;;;;20.83;17.80;;;12.80;1.00;;;;;;5031336;28;20211;-63
2022/10/08 03:54:35;;;;;;;22.13;17.57;;;12.80;1.00;;;;;;5031206;28;20429;-63
2022/10/08 03:57:02;;;;;;;19.70;17.60;;;12.80;1.00;;;;;;5031788;28;20856;-63
2022/10/08 03:59:27;;;;;;;22.00;18.77;;;12.80;1.00;;;;;;5031223;28;20926;-63
2022/10/08 04:01:53;;;;;;;24.63;19.40;;;12.80;1.00;;;;;;5031449;28;20433;-64
2022/10/08 04:04:19;;;;;;;24.37;17.57;;;12.80;1.00;;;;;;5031484;28;20522;-64
2022/10/08 04:06:44;;;;;;;22.07;18.33;;;12.80;1.00;;;;;;5032097;28;20172;-63
2022/10/08 04:09:10;;;;;;;30.40;20.10;;;12.80;1.00;;;;;;5030718;28;20211;-63
2022/10/08 04:11:36;;;;;;;30.27;19.33;;;12.80;1.00;;;;;;5030974;28;20195;-65
2022/10/08 04:14:02;;;;;;;25.53;19.43;;;12.80;1.00;;;;;;5031154;28;20203;-64
2022/10/08 04:16:28;;;;;;;22.43;20.10;;;12.80;1.00;;;;;;5031751;28;20239;-64
2022/10/08 04:18:53;;;;;;;21.20;18.63;;;12.80;1.00;;;;;;5031320;28;20644;-64
2022/10/08 04:21:19;;;;;;;34.23;18.97;;;12.80;1.00;;;;;;5030647;28;20190;-63
2022/10/08 04:23:46;;;;;;;22.83;17.87;;;12.80;1.00;;;;;;5031023;28;20199;-64
2022/10/08 04:26:13;;;;;;;24.17;18.27;;;12.80;1.00;;;;;;5031189;28;20378;-63
2022/10/08 04:28:40;;;;;;;18.83;16.80;;;12.80;1.00;;;;;;5031163;28;20415;-63
2022/10/08 04:31:09;;;;;;;20.93;17.43;;;12.80;1.00;;;;;;5030257;28;20434;-63
2022/10/08 04:33:36;;;;;;;29.27;18.00;;;12.80;1.00;;;;;;5031331;28;20454;-63
2022/10/08 04:36:10;;;;;;;26.50;18.10;;;12.80;1.00;;;;;;5031555;28;20903;-64
2022/10/08 04:38:36;;;;;;;35.67;20.90;;;12.80;1.00;;;;;;5030305;28;20414;-64
2022/10/08 04:41:07;;;;;;;20.73;17.43;;;12.80;1.00;;;;;;5030035;28;20472;-64
2022/10/08 04:43:34;;;;;;;27.37;18.10;;;12.80;1.00;;;;;;5031234;28;20353;-64
2022/10/08 04:46:00;;;;;;;21.30;18.00;;;12.70;1.00;;;;;;5030424;28;20994;-64
2022/10/08 04:48:26;;;;;;;25.70;18.27;;;12.80;1.00;;;;;;5031593;28;20785;-63
2022/10/08 04:50:59;;;;;;;24.73;18.50;;;12.90;1.00;;;;;;5030161;28;20426;-64
2022/10/08 04:53:25;;;;;;;28.07;17.87;;;12.90;1.00;;;;;;5030851;28;20271;-65
2022/10/08 04:55:55;;;;;;;24.20;18.80;;;12.90;1.00;;;;;;5030234;28;20405;-65
2022/10/08 04:58:24;;;;;;;52.47;18.40;;;12.90;1.00;;;;;;5031147;28;20425;-65
2022/10/08 05:00:50;;;;;;;21.53;17.60;;;12.90;1.00;;;;;;5029679;28;20426;-65
2022/10/08 05:03:15;;;;;;;31.17;20.50;;;12.90;1.00;;;;;;5030832;28;20910;-65
2022/10/08 05:05:43;;;;;;;37.97;18.97;;;12.90;1.00;;;;;;5030681;28;20175;-65
2022/10/08 05:08:09;;;;;;;51.70;20.53;;;12.90;1.00;;;;;;5030707;28;20194;-64
2022/10/08 05:10:35;;;;;;;27.80;17.07;;;12.90;1.00;;;;;;5025425;28;20734;-66
2022/10/08 05:13:01;;;;;;;37.13;18.93;;;12.90;1.00;;;;;;5010888;28;20168;-66
2022/10/08 05:15:27;;;;;;;50.33;20.67;;;12.90;1.00;;;;;;5016398;28;20669;-66
2022/10/08 05:17:52;;;;;;;54.70;20.50;;;13.00;1.00;;;;;;5013263;28;20195;-66
2022/10/08 05:20:18;;;;;;;70.23;21.33;;;13.00;1.00;;;;;;5009707;28;20173;-66
2022/10/08 05:22:44;;;;;;;30.37;19.40;;;13.00;1.00;;;;;;5010538;28;20199;-65
2022/10/08 05:25:10;;;;;;;34.70;19.87;;;13.00;1.00;;;;;;5015911;28;20184;-66
2022/10/08 05:27:35;;;;;;;35.57;21.07;;;13.00;1.00;;;;;;5022909;28;20195;-66
2022/10/08 05:30:02;;;;;;;26.93;17.10;;;13.00;1.00;;;;;;5009837;28;20184;-66
2022/10/08 05:32:27;;;;;;;32.83;18.43;;;13.00;1.00;;;;;;5019160;28;20306;-66
2022/10/08 05:34:53;;;;;;;28.13;19.23;;;13.00;1.00;;;;;;5029859;28;20553;-66
2022/10/08 05:37:19;;;;;;;29.27;18.60;;;13.00;1.00;;;;;;5022277;28;20522;-65
2022/10/08 05:39:46;;;;;;;43.37;20.53;;;13.00;1.00;;;;;;5026167;28;20440;-65
2022/10/08 05:42:12;;;;;;;47.47;21.20;;;13.10;1.00;;;;;;5027486;28;20270;-65
2022/10/08 05:44:37;;;;;;;54.43;23.20;;;13.10;1.00;;;;;;5035644;28;20457;-65
2022/10/08 05:47:03;;;;;;;50.20;21.20;;;13.10;1.00;;;;;;5030126;28;20429;-65
2022/10/08 05:49:29;;;;;;;40.00;19.20;;;13.00;1.00;;;;;;5028214;28;20349;-65
2022/10/08 05:51:54;;;;;;;36.83;21.20;;;13.00;1.00;;;;;;5011185;28;20297;-65
2022/10/08 05:54:20;;;;;;;40.97;20.30;;;13.00;1.00;;;;;;5024708;28;20249;-65
2022/10/08 05:56:46;;;;;;;30.47;18.60;;;13.00;1.00;;;;;;5034758;28;20710;-64
2022/10/08 05:59:21;;;;;;;24.10;18.77;;;13.10;1.00;;;;;;5020900;28;20663;-64
2022/10/08 06:01:47;;;;;;;22.47;18.30;;;13.10;1.00;;;;;;5026221;28;20190;-64
2022/10/08 06:04:13;;;;;;;26.93;20.83;;;13.20;1.00;;;;;;5033528;28;20469;-65
2022/10/08 06:06:41;;;;;;;29.77;19.60;;;13.20;1.00;;;;;;5011872;28;20427;-64
2022/10/08 06:09:09;;;;;;;27.97;21.40;;;13.20;1.00;;;;;;5020305;28;20474;-65
2022/10/08 06:11:36;;;;;;;30.20;20.10;;;13.30;1.00;;;;;;5040240;28;20437;-66
2022/10/08 06:14:03;;;;;;;20.53;13.37;;;13.30;1.00;;;;;;5012410;28;20548;-66
2022/10/08 06:16:29;;;;;;;26.50;15.90;;;14.10;1.00;;;;;;5018805;28;20951;-67
2022/10/08 06:18:55;;;;;;;40.27;16.60;;;14.80;1.00;;;;;;5039341;28;20466;-67
2022/10/08 06:21:24;;;;;;;32.17;17.83;;;15.20;1.00;;;;;;5028723;28;20445;-67
2022/10/08 06:23:52;;;;;;;40.77;23.63;;;15.60;1.00;;;;;;5036078;28;20178;-65
2022/10/08 06:26:20;;;;;;;53.73;27.27;;;15.30;1.00;;;;;;5015147;28;20526;-67
2022/10/08 06:28:47;;;;;;;51.67;26.33;;;14.50;1.00;;;;;;4994796;28;20442;-66
2022/10/08 06:31:13;;;;;;;81.57;29.50;;;14.20;99.90;;;;;;5010173;28;20518;-67
2022/10/08 06:33:39;;;;;;;48.53;25.87;;;13.90;1.00;;;;;;5037629;28;21031;-67
2022/10/08 06:36:22;;;;;;;54.97;26.60;;;13.90;1.00;;;;;;5047484;28;20434;-66
2022/10/08 06:39:12;;;;;;;54.20;25.17;;;13.90;1.00;;;;;;5049460;28;20409;-67
2022/10/08 06:41:37;;;;;;;48.50;27.87;;;13.80;1.00;;;;;;5041959;28;20453;-67
2022/10/08 06:44:06;;;;;;;33.63;25.20;;;13.80;1.00;;;;;;5037909;28;20472;-66
2022/10/08 06:46:32;;;;;;;44.57;27.57;;;13.80;1.00;;;;;;5041182;28;20274;-67
2022/10/08 06:49:00;;;;;;;36.27;27.67;;;13.90;1.00;;;;;;5048885;28;20406;-67
2022/10/08 06:51:26;;;;;;;36.73;25.60;;;14.00;1.00;;;;;;5042998;28;20473;-68
2022/10/08 06:53:55;;;;;;;36.57;26.57;;;14.00;1.00;;;;;;5036863;28;20476;-66
2022/10/08 06:56:22;;;;;;;36.33;25.50;;;14.00;1.00;;;;;;5021707;28;20453;-67
2022/10/08 06:58:49;;;;;;;39.57;27.00;;;13.90;1.00;;;;;;5040595;28;20547;-66
2022/10/08 07:01:16;;;;;;;37.83;26.37;;;14.00;1.00;;;;;;5045252;28;20994;-67
2022/10/08 07:03:42;;;;;;;39.20;26.40;;;14.00;1.00;;;;;;5041399;28;20890;-67
2022/10/08 07:06:10;;;;;;;48.97;26.33;;;13.90;1.00;;;;;;5030400;28;20410;-66
2022/10/08 07:08:37;;;;;;;68.33;28.87;;;13.80;1.00;;;;;;5029049;28;20176;-66
2022/10/08 07:11:09;;;;;;;35.33;26.63;;;13.80;1.00;;;;;;5027920;28;20456;-66
2022/10/08 07:13:36;;;;;;;86.87;30.63;;;13.90;1.00;;;;;;5034139;28;20462;-66
2022/10/08 07:16:07;;;;;;;108.37;32.63;;;14.00;1.00;;;;;;5046253;28;20895;-66
2022/10/08 07:18:35;;;;;;;56.77;28.13;;;14.10;1.00;;;;;;5049259;28;20417;-65
2022/10/08 07:21:01;;;;;;;60.33;28.17;;;14.10;1.00;;;;;;5030179;28;20832;-66
2022/10/08 07:23:27;;;;;;;38.37;25.00;;;14.10;1.00;;;;;;5037636;28;20452;-65
2022/10/08 07:26:08;;;;;;;51.73;25.30;;;14.00;1.00;;;;;;5044813;28;20437;-66
2022/10/08 07:28:35;;;;;;;49.67;26.70;;;14.00;1.00;;;;;;5048869;28;20511;-67
2022/10/08 07:31:13;;;;;;;35.00;24.00;;;14.10;1.00;;;;;;5046880;28;20433;-67
2022/10/08 07:33:39;;;;;;;51.23;26.67;;;14.00;1.00;;;;;;5031424;28;20988;-67
2022/10/08 07:36:20;;;;;;;39.73;25.97;;;14.00;1.00;;;;;;5025654;28;20418;-66
2022/10/08 07:38:46;;;;;;;41.23;27.47;;;14.10;1.00;;;;;;5025306;28;20460;-64
2022/10/08 07:41:13;;;;;;;29.80;26.20;;;14.20;1.00;;;;;;5023789;28;20466;-66
2022/10/08 07:43:42;;;;;;;35.63;25.77;;;14.10;1.00;;;;;;5023043;28;20613;-66
2022/10/08 07:46:10;;;;;;;37.10;24.80;;;14.20;1.00;;;;;;5018962;28;20430;-65
2022/10/08 07:48:36;;;;;;;35.33;25.10;;;14.20;1.00;;;;;;5015885;28;20446;-66
2022/10/08 07:51:14;;;;;;;33.27;26.13;;;14.30;1.00;;;;;;5020330;28;20488;-65
2022/10/08 07:53:40;;;;;;;31.27;24.90;;;14.40;1.00;;;;;;5039737;28;20460;-65
2022/10/08 07:56:07;;;;;;;28.77;24.40;;;14.40;1.00;;;;;;5023756;28;20435;-65
2022/10/08 07:58:33;;;;;;;185.90;42.60;;;14.60;1.00;;;;;;5023455;28;20442;-65
2022/10/08 08:01:02;;;;;;;63.70;29.70;;;14.80;1.00;;;;;;5017859;28;20454;-64
2022/10/08 08:03:28;;;;;;;64.23;27.70;;;14.70;1.00;;;;;;5037993;28;20466;-65
2022/10/08 08:06:03;;;;;;;39.00;25.77;;;15.00;1.00;;;;;;5033775;28;20505;-65
2022/10/08 08:08:29;;;;;;;44.47;28.80;;;15.00;1.00;;;;;;5018216;28;20415;-65
2022/10/08 08:10:59;;;;;;;32.50;24.17;;;15.10;1.00;;;;;;5017319;28;20443;-68
2022/10/08 08:13:25;;;;;;;36.30;26.00;;;14.90;1.00;;;;;;5025227;28;20978;-67
2022/10/08 08:15:59;;;;;;;42.67;26.40;;;14.90;1.00;;;;;;5025872;28;20441;-66
2022/10/08 08:18:30;;;;;;;51.83;26.67;;;15.30;1.00;;;;;;5028362;28;20857;-67
2022/10/08 08:20:58;;;;;;;161.90;37.20;;;15.60;99.90;;;;;;5024887;28;20474;-66
2022/10/08 08:23:31;;;;;;;68.33;31.07;;;15.90;99.90;;;;;;5030916;28;20447;-66
2022/10/08 08:26:04;;;;;;;164.00;36.73;;;15.90;93.90;;;;;;5019209;28;20498;-67
2022/10/08 08:28:30;;;;;;;53.83;27.60;;;16.10;1.00;;;;;;5014838;28;20419;-66
2022/10/08 08:31:14;;;;;;;47.27;27.53;;;16.10;1.00;;;;;;5012156;28;20501;-67
2022/10/08 08:33:40;;;;;;;76.60;25.80;;;16.30;1.00;;;;;;5024094;28;20468;-66
2022/10/08 08:36:06;;;;;;;36.63;25.50;;;16.80;99.90;;;;;;5019137;28;20911;-67
2022/10/08 08:38:35;;;;;;;36.00;26.77;;;17.30;99.90;;;;;;5014878;28;20518;-67
2022/10/08 08:41:32;;;;;;;51.47;26.27;;;17.50;1.00;;;;;;5010846;28;20447;-67
2022/10/08 08:44:00;;;;;;;35.10;24.13;;;17.40;1.00;;;;;;5024170;28;20485;-66
2022/10/08 08:46:29;;;;;;;32.40;25.63;;;17.10;1.00;;;;;;5025006;28;20417;-66
2022/10/08 08:48:59;;;;;;;36.83;26.93;;;16.90;99.90;;;;;;5022263;28;20916;-67
2022/10/08 08:51:24;;;;;;;28.83;24.30;;;16.70;99.90;;;;;;5012574;28;20447;-66
2022/10/08 08:53:50;;;;;;;85.07;30.20;;;16.50;1.00;;;;;;5038507;28;21023;-66
2022/10/08 08:56:20;;;;;;;42.87;26.80;;;16.40;99.90;;;;;;5031051;28;20160;-66
2022/10/08 08:59:15;;;;;;;53.13;24.73;;;16.40;1.00;;;;;;5026391;28;20169;-67
2022/10/08 09:01:47;;;;;;;37.93;24.83;;;16.30;1.00;;;;;;5008803;28;20464;-66
2022/10/08 09:04:53;;;;;;;42.23;26.57;;;16.30;1.00;;;;;;5030512;28;20415;-68
2022/10/08 09:07:24;;;;;;;60.40;25.87;;;16.40;1.00;;;;;;5013467;28;20820;-67
2022/10/08 09:09:52;;;;;;;87.93;29.17;;;16.50;1.00;;;;;;5013723;28;20877;-67
2022/10/08 09:12:22;;;;;;;89.70;28.57;;;16.50;1.00;;;;;;5020477;28;20550;-66
2022/10/08 09:14:54;;;;;;;59.67;25.53;;;16.60;1.00;;;;;;5040544;28;20450;-68
2022/10/08 09:17:33;;;;;;;32.60;22.77;;;16.60;1.00;;;;;;5013434;28;20411;-68
2022/10/08 09:19:59;;;;;;;32.10;22.53;;;16.60;1.00;;;;;;5012184;28;20423;-66
2022/10/08 09:22:29;;;;;;;27.50;21.90;;;16.50;1.00;;;;;;5018346;28;20643;-66
2022/10/08 09:25:31;;;;;;;52.83;25.63;;;16.40;17.60;;;;;;5025985;28;20786;-65
2022/10/08 09:27:59;;;;;;;55.57;26.30;;;16.40;87.70;;;;;;4982200;28;20438;-66
2022/10/08 09:30:37;;;;;;;50.23;27.60;;;16.50;1.00;;;;;;5013987;28;20458;-67
2022/10/08 09:33:12;;;;;;;52.10;25.10;;;16.50;1.00;;;;;;5018062;28;20911;-66
2022/10/08 09:35:43;;;;;;;38.20;21.87;;;16.50;1.00;;;;;;5026431;28;20422;-67
2022/10/08 09:38:21;;;;;;;28.97;22.83;;;16.60;1.00;;;;;;5012554;28;20414;-66
2022/10/08 09:41:17;;;;;;;28.20;22.97;;;16.40;1.00;;;;;;5005857;28;20537;-67
2022/10/08 09:43:44;;;;;;;36.47;19.90;;;16.40;93.20;;;;;;5026236;28;20433;-66
2022/10/08 09:46:31;;;;;;;206.90;40.73;;;16.30;99.90;;;;;;5019944;28;20813;-67
2022/10/08 09:49:31;;;;;;;65.60;25.77;;;16.40;99.90;;;;;;5017506;28;20935;-67
2022/10/08 09:52:03;;;;;;;48.87;23.80;;;16.20;99.90;;;;;;5025108;28;20998;-67
2022/10/08 09:54:37;;;;;;;44.50;22.03;;;16.20;99.90;;;;;;5026365;28;20456;-67
2022/10/08 09:57:03;;;;;;;26.63;21.00;;;16.20;99.90;;;;;;5012816;28;20514;-66
2022/10/08 09:59:35;;;;;;;29.60;20.73;;;16.20;99.90;;;;;;5013386;28;20451;-67
2022/10/08 10:02:02;;;;;;;23.63;21.10;;;16.10;99.90;;;;;;5015600;28;20482;-66
2022/10/08 10:04:35;;;;;;;28.73;21.47;;;16.10;1.00;;;;;;5031267;28;20425;-66
2022/10/08 10:07:02;;;;;;;37.87;22.03;;;16.00;1.00;;;;;;5028940;28;20541;-66
2022/10/08 10:09:46;;;;;;;48.10;21.60;;;16.00;1.00;;;;;;5020584;28;20423;-66
2022/10/08 10:12:53;;;;;;;36.33;22.70;;;16.10;1.00;;;;;;5018338;28;20687;-67
2022/10/08 10:15:26;;;;;;;46.07;23.37;;;16.20;1.00;;;;;;4979242;28;20838;-67
2022/10/08 10:17:58;;;;;;;63.00;24.50;;;16.20;1.00;;;;;;5007738;28;20501;-66
2022/10/08 10:20:39;;;;;;;25.47;21.83;;;16.30;1.00;;;;;;5009667;28;20403;-67
2022/10/08 10:23:37;;;;;;;104.50;31.57;;;16.20;1.00;;;;;;5024254;28;20909;-66
2022/10/08 10:26:09;;;;;;;103.70;32.53;;;16.20;1.00;;;;;;5020182;28;20477;-66
2022/10/08 10:28:57;;;;;;;123.13;33.17;;;16.30;1.00;;;;;;5013131;28;20419;-67
2022/10/08 10:31:30;;;;;;;68.20;26.33;;;16.30;1.00;;;;;;5015646;28;20442;-65
2022/10/08 10:34:01;;;;;;;39.30;24.33;;;16.30;1.00;;;;;;5030767;28;20494;-67
2022/10/08 10:36:46;;;;;;;43.80;21.07;;;16.30;1.00;;;;;;5033549;28;20929;-67
2022/10/08 10:39:40;;;;;;;24.70;20.30;;;16.30;1.00;;;;;;5026497;28;20430;-66
2022/10/08 10:42:25;;;;;;;27.53;21.33;;;16.30;1.00;;;;;;5027588;28;20983;-67
2022/10/08 10:44:54;;;;;;;38.20;22.27;;;16.20;1.00;;;;;;5011941;28;20422;-67
2022/10/08 10:47:23;;;;;;;33.83;20.40;;;16.20;1.00;;;;;;5020075;28;20489;-67
2022/10/08 10:49:50;;;;;;;22.80;19.37;;;16.20;1.00;;;;;;5018692;28;20418;-66
2022/10/08 10:52:36;;;;;;;36.87;21.80;;;16.20;1.00;;;;;;5019470;28;20468;-66
2022/10/08 10:55:22;;;;;;;50.13;24.50;;;16.30;1.00;;;;;;5032580;28;20459;-65
2022/10/08 10:57:57;;;;;;;29.40;21.03;;;16.40;1.00;;;;;;5019460;28;20420;-67
2022/10/08 11:00:29;;;;;;;32.03;22.37;;;16.30;1.00;;;;;;5011589;28;20419;-66
2022/10/08 11:03:09;;;;;;;25.43;21.27;;;16.40;1.00;;;;;;5021933;28;20826;-64
2022/10/08 11:05:36;;;;;;;30.13;21.50;;;16.40;1.00;;;;;;5021135;28;20874;-65
2022/10/08 11:08:42;;;;;;;29.40;22.03;;;16.40;1.00;;;;;;5016663;28;20427;-64
2022/10/08 11:11:38;;;;;;;29.80;23.43;;;16.40;1.00;;;;;;5011109;28;20427;-65
2022/10/08 11:14:31;;;;;;;33.57;21.23;;;16.40;1.00;;;;;;5033900;28;20994;-67
2022/10/08 11:17:33;;;;;;;55.63;23.70;;;16.40;1.00;;;;;;5026028;28;20446;-65
2022/10/08 11:20:21;;;;;;;51.07;23.47;;;16.40;1.00;;;;;;5044108;28;20495;-65
2022/10/08 11:23:19;;;;;;;35.60;22.30;;;16.40;1.00;;;;;;5026126;28;20465;-65
2022/10/08 11:25:59;;;;;;;24.70;21.03;;;16.30;1.00;;;;;;5023262;28;20522;-65
2022/10/08 11:28:38;;;;;;;46.33;22.63;;;16.30;1.00;;;;;;5035854;28;20435;-65
2022/10/08 11:31:25;;;;;;;30.50;20.50;;;16.40;1.00;;;;;;5024557;28;20864;-64
2022/10/08 11:33:55;;;;;;;73.10;24.63;;;16.40;1.00;;;;;;5035876;28;20461;-65
2022/10/08 11:36:31;;;;;;;222.47;35.13;;;16.50;1.00;;;;;;5025562;28;20517;-63
2022/10/08 11:39:19;;;;;;;66.43;24.57;;;16.50;1.00;;;;;;5037446;28;20469;-63
2022/10/08 11:41:54;;;;;;;150.20;31.10;;;16.50;1.00;;;;;;5017450;28;20782;-65
2022/10/08 11:44:20;;;;;;;247.80;42.50;;;16.60;1.00;;;;;;5029358;28;20531;-66
2022/10/08 11:46:46;;;;;;;328.77;47.20;;;16.60;1.00;;;;;;5024708;28;20930;-67
2022/10/08 11:49:15;;;;;;;32.70;20.67;;;16.70;1.00;;;;;;5038463;28;20415;-66
2022/10/08 11:51:45;;;;;;;33.00;20.00;;;16.80;1.00;;;;;;5025530;28;20495;-65
2022/10/08 11:54:33;;;;;;;22.53;18.83;;;16.90;99.90;;;;;;5038132;28;20799;-66
2022/10/08 11:57:18;;;;;;;48.43;21.37;;;16.90;99.90;;;;;;5028307;28;20497;-66
2022/10/08 12:00:31;;;;;;;80.00;24.90;;;16.90;99.90;;;;;;5028000;28;20409;-67
2022/10/08 12:02:58;;;;;;;49.10;20.13;;;17.00;78.90;;;;;;4956550;28;20451;-67
2022/10/08 12:05:46;;;;;;;22.73;16.97;;;17.10;1.00;;;;;;5030783;28;20401;-66
2022/10/08 12:08:47;;;;;;;19.30;14.87;;;17.10;99.90;;;;;;5055308;28;20501;-67
2022/10/08 12:11:31;;;;;;;16.57;14.70;;;17.10;99.90;;;;;;5054382;28;20781;-65
2022/10/08 12:14:13;;;;;;;23.10;15.53;;;17.20;1.00;;;;;;5028575;28;20970;-65
2022/10/08 12:16:48;;;;;;;15.33;11.17;;;17.40;1.00;;;;;;5040110;28;20402;-67
2022/10/08 12:19:58;;;;;;;444.40;55.73;;;17.60;1.00;;;;;;5050685;28;20397;-66
2022/10/08 12:22:27;;;;;;;202.37;31.20;;;17.80;99.90;;;;;;4982785;28;20456;-67
2022/10/08 12:24:55;;;;;;;65.53;17.30;;;17.80;1.00;;;;;;5043240;28;20412;-67
2022/10/08 12:27:29;;;;;;;22.80;12.70;;;17.80;1.00;;;;;;5051914;28;20480;-66
2022/10/08 12:30:16;;;;;;;155.40;25.60;;;17.70;99.90;;;;;;5050890;28;20464;-66
2022/10/08 12:32:41;;;;;;;14.63;8.80;;;17.60;1.00;;;;;;5041148;28;20449;-67
2022/10/08 12:35:23;;;;;;;15.97;7.10;;;17.60;1.00;;;;;;5039872;28;20454;-66
2022/10/08 12:38:07;;;;;;;12.30;6.17;;;17.60;1.00;;;;;;5031427;28;20187;-67
2022/10/08 12:40:41;;;;;;;12.33;6.33;;;17.50;1.00;;;;;;5030839;28;20413;-67
2022/10/08 12:43:14;;;;;;;13.33;6.00;;;17.60;99.90;;;;;;5038720;28;20879;-66
2022/10/08 12:45:52;;;;;;;16.33;6.53;;;17.70;99.90;;;;;;5038474;28;20845;-66
2022/10/08 12:48:38;;;;;;;11.53;6.40;;;17.60;91.10;;;;;;5051298;28;20436;-67
2022/10/08 12:51:19;;;;;;;11.53;5.63;;;17.50;40.80;;;;;;5051042;28;20535;-67
2022/10/08 12:53:46;;;;;;;16.90;6.43;;;17.60;28.50;;;;;;5039050;28;20461;-67
2022/10/08 12:56:27;;;;;;;21.37;6.90;;;17.60;12.40;;;;;;5041116;28;20966;-65
2022/10/08 12:58:55;;;;;;;24.67;7.20;;;17.80;1.00;;;;;;5051235;28;20747;-66
2022/10/08 13:01:22;;;;;;;20.07;7.33;;;17.80;1.00;;;;;;5050027;28;20417;-66
2022/10/08 13:04:09;;;;;;;50.80;10.07;;;17.90;1.00;;;;;;5039253;28;20429;-65
2022/10/08 13:06:34;;;;;;;56.33;11.83;;;17.90;1.00;;;;;;5033260;28;20422;-66